LEAB/ABC METAR and TAF weather

Enter ICAO airport designator
Station Type Date Time Source
LEAB METAR 2020/01/23 15:00 UTC NOAA

LEAB 231500Z 18007KT 130V220 9999 BKN024 BKN041 10/05 Q1018 NOSIG


Station Type Date Time Source
LEAB Decoded METAR 2020/01/23 15:00 UTC NOAA

Albacete / Los Llanos, Spain (LEAB) 38-57N 001-51W 704M
Jan 23, 2020 - 10:00 AM EST / 2020.01.23 1500 UTC
Wind: from the S (180 degrees) at 8 MPH (7 KT) (direction variable):0
Visibility: greater than 7 mile(s):0
Sky conditions: mostly cloudy
Temperature: 50 F (10 C)
Dew Point: 41 F (5 C)
Relative Humidity: 71%
Pressure (altimeter): 30.06 in. Hg (1018 hPa)
ob: LEAB 231500Z 18007KT 130V220 9999 BKN024 BKN041 10/05 Q1018 NOSIG
cycle: 15

Station Type Date Time Source
LEAB TAF 2018/04/26 18:51 UTC NOAA

TAF
AMD LEAB 261747Z 2618/2706 16012KT 9999 FEW040
BECMG 2704/2706 27015KT
TEMPO 2704/2706 BKN014

Example: see airport list